»·PEaware :: N723BA KDTW-CYHZ

N723BA :: KDTW-CYHZ

FLIGHT INFORMATION

Flight Status: Arrived
Operator: Privately registered:
United States
More flights under this callsign
Pilot: Brian A. (9771)
Aircraft: AIRBUS A320
(A320)
More flights by this aircraft type
Origin: KDTW Detroit Metro Wayne Co
United States
Destination: CYHZ Halifax Intl
Canada
More flights between these airports :: More routes between these airports
Route: MOON8 JHW Q84 CAM Q822 ALLEX
File this flight plan on PilotEdge
Remarks:
Altitude:
(Current/Filed)
39,000ft
Speed:
(Current/Filed)
425kts
Departed: 19-Nov-17 04:11 PM
Arrived: 19-Nov-17 06:04 PM
Distance/Time
Traveled:
875nm/1:53
Distance/Time
To Go:
Arrived

Flight Plot

Page will automatically refresh every two minutes.

Flight plan parsing failed; only flown route is shown


Map Options




Map Legend


Flown Route
Filed Route
Departure Airport
Arrival Airport
Navaid (VOR, NDB)
Fix

Horizontal Profiles

Position Reports

Time Latitude Longitude Heading Altitude Ground
Speed
19-Nov-17 16:15 42.362095 -82.280173 94 19013ft 445kts
19-Nov-17 16:16 42.355304 -82.110941 94 20365ft 454kts
19-Nov-17 16:17 42.347598 -81.938916 94 21596ft 464kts
19-Nov-17 16:18 42.339786 -81.763007 95 22769ft 472kts
19-Nov-17 16:19 42.331409 -81.584809 95 23856ft 479kts
19-Nov-17 16:20 42.322766 -81.403944 95 24860ft 486kts
19-Nov-17 16:21 42.313745 -81.219876 95 25802ft 493kts
19-Nov-17 16:22 42.304210 -81.034018 95 26656ft 499kts
19-Nov-17 16:23 42.294310 -80.845906 95 27386ft 506kts
19-Nov-17 16:24 42.283929 -80.655081 95 28137ft 510kts
19-Nov-17 16:25 42.273239 -80.464752 96 29106ft 508kts
19-Nov-17 16:26 42.262210 -80.274350 96 29943ft 509kts
19-Nov-17 16:27 42.250777 -80.083610 96 30758ft 510kts
19-Nov-17 16:28 42.239124 -79.893075 97 31506ft 510kts
19-Nov-17 16:29 42.227086 -79.702101 97 32246ft 509kts
19-Nov-17 16:30 42.214768 -79.512120 98 32908ft 509kts
19-Nov-17 16:31 42.202232 -79.322037 98 33503ft 508kts
19-Nov-17 16:32 42.191322 -79.131157 88 33920ft 514kts
19-Nov-17 16:33 42.235725 -78.946993 69 34250ft 521kts
19-Nov-17 16:34 42.284314 -78.762079 71 34570ft 522kts
19-Nov-17 16:35 42.333848 -78.577451 71 34847ft 524kts
19-Nov-17 16:36 42.382338 -78.391513 71 35078ft 526kts
19-Nov-17 16:37 42.431321 -78.203938 71 35268ft 528kts
19-Nov-17 16:38 42.479780 -78.016567 71 35542ft 527kts
19-Nov-17 16:39 42.527932 -77.828696 72 35729ft 528kts
19-Nov-17 16:40 42.576104 -77.639863 72 35898ft 528kts
19-Nov-17 16:41 42.623611 -77.451644 72 36056ft 527kts
19-Nov-17 16:42 42.670726 -77.263294 72 36165ft 527kts
19-Nov-17 16:43 42.717839 -77.073949 72 36256ft 527kts
19-Nov-17 16:44 42.764243 -76.885532 72 36390ft 526kts
19-Nov-17 16:45 42.810703 -76.695407 72 36377ft 528kts
19-Nov-17 16:46 42.856621 -76.505815 73 36456ft 528kts
19-Nov-17 16:47 42.893789 -76.312635 79 36450ft 527kts
19-Nov-17 16:48 42.925593 -76.117472 79 36591ft 525kts
19-Nov-17 16:49 42.957232 -75.923085 79 36587ft 526kts
19-Nov-17 16:50 42.988710 -75.728242 80 36607ft 526kts
19-Nov-17 16:51 43.019767 -75.533069 80 36703ft 524kts
19-Nov-17 16:52 43.050370 -75.338401 80 36667ft 525kts
19-Nov-17 16:53 43.051923 -75.141783 99 36670ft 514kts
19-Nov-17 16:54 43.043889 -74.946749 97 36649ft 516kts
19-Nov-17 16:55 43.035799 -74.751423 98 36736ft 514kts
19-Nov-17 16:56 43.027601 -74.555891 98 36707ft 515kts
19-Nov-17 16:57 43.018844 -74.360682 98 36694ft 515kts
19-Nov-17 16:58 43.012123 -74.165036 95 36709ft 517kts
19-Nov-17 16:59 43.008622 -73.968813 97 36812ft 515kts
19-Nov-17 17:00 43.004389 -73.773011 97 36819ft 515kts
19-Nov-17 17:01 42.999930 -73.576788 97 36761ft 517kts
19-Nov-17 17:02 42.995171 -73.380641 97 36751ft 518kts
19-Nov-17 17:03 43.021044 -73.184698 79 36689ft 530kts
19-Nov-17 17:04 43.054390 -72.988171 81 36703ft 529kts
19-Nov-17 17:05 43.087319 -72.791898 80 36705ft 530kts
19-Nov-17 17:06 43.119526 -72.595318 81 36726ft 530kts
19-Nov-17 17:07 43.151723 -72.397767 81 36724ft 531kts
19-Nov-17 17:08 43.183502 -72.200905 81 36835ft 528kts
19-Nov-17 17:09 43.214877 -72.003623 81 36821ft 529kts
19-Nov-17 17:10 43.245934 -71.806171 82 36748ft 531kts
19-Nov-17 17:11 43.276654 -71.608322 82 36762ft 531kts
19-Nov-17 17:12 43.307156 -71.409528 82 36746ft 531kts
19-Nov-17 17:13 43.337341 -71.210840 82 36739ft 532kts
19-Nov-17 17:14 43.367113 -71.011792 83 36734ft 533kts
19-Nov-17 17:15 43.396676 -70.812028 83 36821ft 531kts
19-Nov-17 17:16 43.426639 -70.613328 76 36831ft 535kts
19-Nov-17 17:17 43.483907 -70.422520 69 36865ft 539kts
19-Nov-17 17:18 43.540836 -70.231879 71 36893ft 537kts
19-Nov-17 17:19 43.598077 -70.042023 71 36942ft 537kts
19-Nov-17 17:20 43.654639 -69.850736 71 36915ft 537kts
19-Nov-17 17:21 43.711047 -69.659767 71 36877ft 538kts
19-Nov-17 17:22 43.765647 -69.467595 73 36852ft 537kts
19-Nov-17 17:23 43.818983 -69.273498 73 36819ft 539kts
19-Nov-17 17:24 43.872333 -69.079681 73 36800ft 539kts
19-Nov-17 17:25 43.925413 -68.884367 73 36776ft 540kts
19-Nov-17 17:26 43.977996 -68.689753 74 36892ft 538kts
19-Nov-17 17:27 44.029889 -68.495789 74 37076ft 533kts
19-Nov-17 17:28 44.081510 -68.301813 74 36973ft 536kts
19-Nov-17 17:29 44.132764 -68.107104 75 36913ft 537kts
19-Nov-17 17:30 44.183894 -67.911748 75 36900ft 537kts
19-Nov-17 17:31 44.234629 -67.715889 75 37006ft 534kts
19-Nov-17 17:32 44.284725 -67.520869 75 36994ft 535kts
19-Nov-17 17:33 44.334697 -67.325007 75 37008ft 534kts
19-Nov-17 17:34 44.383984 -67.130017 75 37117ft 531kts
19-Nov-17 17:35 44.429356 -66.934536 80 37117ft 527kts
19-Nov-17 17:36 44.465843 -66.735257 80 37055ft 528kts
19-Nov-17 17:37 44.502592 -66.537437 81 37007ft 529kts
19-Nov-17 17:38 44.539095 -66.336493 81 36170ft 547kts
19-Nov-17 17:39 44.576844 -66.127935 81 35585ft 548kts
19-Nov-17 17:40 44.613448 -65.922834 82 34609ft 534kts
19-Nov-17 17:41 44.648746 -65.722808 81 33632ft 535kts
19-Nov-17 17:42 44.683996 -65.520758 82 32645ft 534kts
19-Nov-17 17:43 44.698765 -65.318842 101 31018ft 514kts
19-Nov-17 17:44 44.728295 -65.110597 79 27258ft 547kts
19-Nov-17 17:45 44.758572 -64.901206 82 23291ft 546kts
19-Nov-17 17:46 44.791154 -64.696270 82 20155ft 526kts
19-Nov-17 17:47 44.820489 -64.497278 82 17154ft 509kts
19-Nov-17 17:48 44.848869 -64.307235 82 14573ft 485kts
19-Nov-17 17:49 44.875905 -64.125941 82 12511ft 451kts
19-Nov-17 17:50 44.901431 -63.964542 83 11702ft 394kts
19-Nov-17 17:51 44.923033 -63.823289 84 11044ft 347kts
19-Nov-17 17:52 44.942996 -63.691521 85 9373ft 339kts
19-Nov-17 17:53 44.966780 -63.567732 53 8309ft 321kts
19-Nov-17 17:54 45.037134 -63.504101 31 7533ft 281kts
19-Nov-17 17:55 45.099393 -63.449283 31 6581ft 258kts
19-Nov-17 17:56 45.160791 -63.396387 31 5116ft 264kts
19-Nov-17 17:57 45.218002 -63.333036 86 3567ft 238kts
19-Nov-17 17:58 45.192520 -63.280813 162 2997ft 150kts
19-Nov-17 17:59 45.153954 -63.257520 163 2399ft 152kts
19-Nov-17 18:00 45.117824 -63.277144 208 2184ft 145kts
19-Nov-17 18:01 45.084780 -63.310089 209 2200ft 145kts
19-Nov-17 18:02 45.051743 -63.342923 209 2204ft 145kts
19-Nov-17 18:03 45.018750 -63.375688 209 2200ft 145kts
19-Nov-17 18:04 44.985483 -63.408696 212 2204ft 142kts
19-Nov-17 18:05 44.956315 -63.437558 212 1963ft 122kts
19-Nov-17 18:06 44.928048 -63.465598 210 1367ft 127kts
19-Nov-17 18:07 44.899013 -63.494098 210 692ft 129kts
19-Nov-17 18:08 44.876600 -63.516400 215 491ft 65kts
19-Nov-17 18:09 44.874939 -63.521230 332 491ft 10kts
19-Nov-17 18:10 44.878027 -63.518479 32 491ft 16kts
19-Nov-17 18:11 44.880630 -63.516964 305 491ft 9kts
19-Nov-17 18:12 44.880776 -63.517305 299 491ft 0kts
19-Nov-17 18:13 44.880776 -63.517305 299 491ft 0kts
19-Nov-17 18:14 44.880776 -63.517305 299 491ft 0kts
19-Nov-17 18:15 44.880776 -63.517305 299 491ft 0kts
19-Nov-17 18:16 44.880776 -63.517305 299 491ft 0kts
19-Nov-17 18:17 44.880776 -63.517305 299 491ft 0kts

Navigation Log

Ident Type
Flight plan parsing failed, navigation log unavailable